sensor_id;sensor_type;location;lat;lon;timestamp;P1;durP1;ratioP1;P2;durP2;ratioP2
49530;SDS011;74875;30.696;104.060;2024-03-06T00:00:46;19.10;;;9.52;;
49530;SDS011;74875;30.696;104.060;2024-03-06T00:03:15;13.55;;;6.82;;
49530;SDS011;74875;30.696;104.060;2024-03-06T00:05:43;16.00;;;8.10;;
49530;SDS011;74875;30.696;104.060;2024-03-06T00:08:10;16.58;;;7.50;;
49530;SDS011;74875;30.696;104.060;2024-03-06T00:10:37;23.45;;;7.90;;
49530;SDS011;74875;30.696;104.060;2024-03-06T00:13:04;17.25;;;7.38;;
49530;SDS011;74875;30.696;104.060;2024-03-06T00:15:31;14.63;;;8.32;;
49530;SDS011;74875;30.696;104.060;2024-03-06T00:18:01;16.52;;;8.10;;
49530;SDS011;74875;30.696;104.060;2024-03-06T00:20:29;30.02;;;12.05;;
49530;SDS011;74875;30.696;104.060;2024-03-06T00:23:01;16.45;;;8.45;;
49530;SDS011;74875;30.696;104.060;2024-03-06T00:25:28;13.43;;;7.20;;
49530;SDS011;74875;30.696;104.060;2024-03-06T00:27:55;13.50;;;7.40;;
49530;SDS011;74875;30.696;104.060;2024-03-06T00:30:25;13.32;;;7.32;;
49530;SDS011;74875;30.696;104.060;2024-03-06T00:32:52;15.02;;;7.50;;
49530;SDS011;74875;30.696;104.060;2024-03-06T00:35:20;15.07;;;7.70;;
49530;SDS011;74875;30.696;104.060;2024-03-06T00:37:54;16.65;;;8.20;;
49530;SDS011;74875;30.696;104.060;2024-03-06T00:40:21;20.85;;;8.50;;
49530;SDS011;74875;30.696;104.060;2024-03-06T00:42:49;16.42;;;8.85;;
49530;SDS011;74875;30.696;104.060;2024-03-06T00:45:19;16.38;;;8.63;;
49530;SDS011;74875;30.696;104.060;2024-03-06T00:47:49;20.48;;;10.73;;
49530;SDS011;74875;30.696;104.060;2024-03-06T00:50:16;19.80;;;11.40;;
49530;SDS011;74875;30.696;104.060;2024-03-06T00:52:47;17.38;;;8.13;;
49530;SDS011;74875;30.696;104.060;2024-03-06T00:55:17;16.88;;;9.43;;
49530;SDS011;74875;30.696;104.060;2024-03-06T00:57:45;17.52;;;8.27;;
49530;SDS011;74875;30.696;104.060;2024-03-06T01:00:16;14.32;;;7.55;;
49530;SDS011;74875;30.696;104.060;2024-03-06T01:02:44;23.80;;;9.80;;
49530;SDS011;74875;30.696;104.060;2024-03-06T01:05:12;20.80;;;9.18;;
49530;SDS011;74875;30.696;104.060;2024-03-06T01:07:39;19.05;;;8.10;;
49530;SDS011;74875;30.696;104.060;2024-03-06T01:10:10;17.77;;;8.88;;
49530;SDS011;74875;30.696;104.060;2024-03-06T01:12:37;13.98;;;7.90;;
49530;SDS011;74875;30.696;104.060;2024-03-06T01:15:04;24.50;;;9.52;;
49530;SDS011;74875;30.696;104.060;2024-03-06T01:17:33;16.55;;;9.52;;
49530;SDS011;74875;30.696;104.060;2024-03-06T01:20:07;17.27;;;10.20;;
49530;SDS011;74875;30.696;104.060;2024-03-06T01:22:41;15.98;;;8.65;;
49530;SDS011;74875;30.696;104.060;2024-03-06T01:25:08;20.10;;;8.98;;
49530;SDS011;74875;30.696;104.060;2024-03-06T01:27:35;29.10;;;8.77;;
49530;SDS011;74875;30.696;104.060;2024-03-06T01:30:04;17.83;;;9.70;;
49530;SDS011;74875;30.696;104.060;2024-03-06T01:32:33;16.92;;;9.48;;
49530;SDS011;74875;30.696;104.060;2024-03-06T01:35:02;17.77;;;8.85;;
49530;SDS011;74875;30.696;104.060;2024-03-06T01:37:30;18.55;;;9.32;;
49530;SDS011;74875;30.696;104.060;2024-03-06T01:40:17;16.58;;;8.43;;
49530;SDS011;74875;30.696;104.060;2024-03-06T01:42:48;14.35;;;8.38;;
49530;SDS011;74875;30.696;104.060;2024-03-06T01:45:19;20.92;;;9.40;;
49530;SDS011;74875;30.696;104.060;2024-03-06T01:47:48;17.73;;;10.20;;
49530;SDS011;74875;30.696;104.060;2024-03-06T01:50:16;15.38;;;8.80;;
49530;SDS011;74875;30.696;104.060;2024-03-06T01:52:49;24.80;;;12.57;;
49530;SDS011;74875;30.696;104.060;2024-03-06T01:55:16;17.42;;;9.65;;
49530;SDS011;74875;30.696;104.060;2024-03-06T01:57:49;21.92;;;10.85;;
49530;SDS011;74875;30.696;104.060;2024-03-06T02:00:16;20.95;;;10.27;;
49530;SDS011;74875;30.696;104.060;2024-03-06T02:02:46;21.40;;;10.52;;
49530;SDS011;74875;30.696;104.060;2024-03-06T02:05:17;16.10;;;9.68;;
49530;SDS011;74875;30.696;104.060;2024-03-06T02:07:44;17.05;;;11.02;;
49530;SDS011;74875;30.696;104.060;2024-03-06T02:10:14;21.25;;;9.02;;
49530;SDS011;74875;30.696;104.060;2024-03-06T02:12:44;26.02;;;9.90;;
49530;SDS011;74875;30.696;104.060;2024-03-06T02:15:14;19.95;;;9.60;;
49530;SDS011;74875;30.696;104.060;2024-03-06T02:17:41;19.25;;;9.77;;
49530;SDS011;74875;30.696;104.060;2024-03-06T02:20:12;22.38;;;9.50;;
49530;SDS011;74875;30.696;104.060;2024-03-06T02:22:41;22.00;;;9.15;;
49530;SDS011;74875;30.696;104.060;2024-03-06T02:25:13;21.05;;;10.00;;
49530;SDS011;74875;30.696;104.060;2024-03-06T02:27:40;18.88;;;8.38;;
49530;SDS011;74875;30.696;104.060;2024-03-06T02:30:12;22.92;;;9.73;;
49530;SDS011;74875;30.696;104.060;2024-03-06T02:32:40;19.05;;;9.35;;
49530;SDS011;74875;30.696;104.060;2024-03-06T02:35:10;19.83;;;9.60;;
49530;SDS011;74875;30.696;104.060;2024-03-06T02:37:41;22.88;;;9.48;;
49530;SDS011;74875;30.696;104.060;2024-03-06T02:40:09;16.55;;;8.85;;
49530;SDS011;74875;30.696;104.060;2024-03-06T02:42:40;22.05;;;10.65;;
49530;SDS011;74875;30.696;104.060;2024-03-06T02:45:11;26.05;;;8.27;;
49530;SDS011;74875;30.696;104.060;2024-03-06T02:47:42;23.73;;;9.65;;
49530;SDS011;74875;30.696;104.060;2024-03-06T02:50:10;18.83;;;8.50;;
49530;SDS011;74875;30.696;104.060;2024-03-06T02:52:37;16.25;;;8.00;;
49530;SDS011;74875;30.696;104.060;2024-03-06T02:55:06;18.33;;;8.45;;
49530;SDS011;74875;30.696;104.060;2024-03-06T02:57:36;18.70;;;8.05;;
49530;SDS011;74875;30.696;104.060;2024-03-06T03:00:04;18.40;;;8.55;;
49530;SDS011;74875;30.696;104.060;2024-03-06T03:02:34;18.73;;;7.65;;
49530;SDS011;74875;30.696;104.060;2024-03-06T03:05:05;19.58;;;9.07;;
49530;SDS011;74875;30.696;104.060;2024-03-06T03:07:34;15.57;;;8.25;;
49530;SDS011;74875;30.696;104.060;2024-03-06T03:10:01;16.90;;;7.97;;
49530;SDS011;74875;30.696;104.060;2024-03-06T03:12:31;19.60;;;8.05;;
49530;SDS011;74875;30.696;104.060;2024-03-06T03:14:58;16.55;;;7.93;;
49530;SDS011;74875;30.696;104.060;2024-03-06T03:17:26;15.68;;;8.18;;
49530;SDS011;74875;30.696;104.060;2024-03-06T03:19:54;17.20;;;8.45;;
49530;SDS011;74875;30.696;104.060;2024-03-06T03:22:24;18.25;;;8.90;;
49530;SDS011;74875;30.696;104.060;2024-03-06T03:24:51;27.23;;;10.07;;
49530;SDS011;74875;30.696;104.060;2024-03-06T03:27:20;14.63;;;7.68;;
49530;SDS011;74875;30.696;104.060;2024-03-06T03:29:48;15.40;;;8.32;;
49530;SDS011;74875;30.696;104.060;2024-03-06T03:32:15;20.20;;;8.88;;
49530;SDS011;74875;30.696;104.060;2024-03-06T03:34:43;17.13;;;8.18;;
49530;SDS011;74875;30.696;104.060;2024-03-06T03:37:12;16.80;;;8.35;;
49530;SDS011;74875;30.696;104.060;2024-03-06T03:39:40;18.85;;;7.75;;
49530;SDS011;74875;30.696;104.060;2024-03-06T03:42:07;22.23;;;8.15;;
49530;SDS011;74875;30.696;104.060;2024-03-06T03:44:36;12.40;;;7.60;;
49530;SDS011;74875;30.696;104.060;2024-03-06T03:47:03;15.05;;;7.00;;
49530;SDS011;74875;30.696;104.060;2024-03-06T03:49:30;16.08;;;8.07;;
49530;SDS011;74875;30.696;104.060;2024-03-06T03:51:57;22.52;;;8.85;;
49530;SDS011;74875;30.696;104.060;2024-03-06T03:54:24;15.23;;;7.40;;
49530;SDS011;74875;30.696;104.060;2024-03-06T03:56:50;15.52;;;7.95;;
49530;SDS011;74875;30.696;104.060;2024-03-06T03:59:17;13.32;;;8.18;;
49530;SDS011;74875;30.696;104.060;2024-03-06T04:01:47;22.00;;;10.25;;
49530;SDS011;74875;30.696;104.060;2024-03-06T04:04:16;30.05;;;14.02;;
49530;SDS011;74875;30.696;104.060;2024-03-06T04:06:43;27.63;;;12.40;;
49530;SDS011;74875;30.696;104.060;2024-03-06T04:09:11;34.83;;;15.93;;
49530;SDS011;74875;30.696;104.060;2024-03-06T04:11:40;39.20;;;14.50;;
49530;SDS011;74875;30.696;104.060;2024-03-06T04:14:07;33.45;;;15.73;;
49530;SDS011;74875;30.696;104.060;2024-03-06T04:16:37;49.45;;;19.95;;
49530;SDS011;74875;30.696;104.060;2024-03-06T04:19:04;37.95;;;16.73;;
49530;SDS011;74875;30.696;104.060;2024-03-06T04:21:31;46.05;;;19.10;;
49530;SDS011;74875;30.696;104.060;2024-03-06T04:23:58;47.63;;;18.58;;
49530;SDS011;74875;30.696;104.060;2024-03-06T04:26:25;52.80;;;22.45;;
49530;SDS011;74875;30.696;104.060;2024-03-06T04:28:52;54.33;;;22.85;;
49530;SDS011;74875;30.696;104.060;2024-03-06T04:31:19;64.47;;;28.73;;
49530;SDS011;74875;30.696;104.060;2024-03-06T04:33:47;66.00;;;25.85;;
49530;SDS011;74875;30.696;104.060;2024-03-06T04:36:14;65.68;;;29.13;;
49530;SDS011;74875;30.696;104.060;2024-03-06T04:38:42;63.83;;;29.23;;
49530;SDS011;74875;30.696;104.060;2024-03-06T04:41:09;69.28;;;26.17;;
49530;SDS011;74875;30.696;104.060;2024-03-06T04:43:36;67.32;;;28.27;;
49530;SDS011;74875;30.696;104.060;2024-03-06T04:46:03;63.97;;;27.45;;
49530;SDS011;74875;30.696;104.060;2024-03-06T04:48:30;58.03;;;27.70;;
49530;SDS011;74875;30.696;104.060;2024-03-06T04:51:00;71.18;;;26.67;;
49530;SDS011;74875;30.696;104.060;2024-03-06T04:53:27;63.45;;;27.52;;
49530;SDS011;74875;30.696;104.060;2024-03-06T04:55:53;55.92;;;24.40;;
49530;SDS011;74875;30.696;104.060;2024-03-06T04:58:20;56.47;;;25.30;;
49530;SDS011;74875;30.696;104.060;2024-03-06T05:00:47;57.33;;;25.23;;
49530;SDS011;74875;30.696;104.060;2024-03-06T05:03:14;52.22;;;25.17;;
49530;SDS011;74875;30.696;104.060;2024-03-06T05:05:41;59.38;;;26.42;;
49530;SDS011;74875;30.696;104.060;2024-03-06T05:08:08;51.78;;;22.83;;
49530;SDS011;74875;30.696;104.060;2024-03-06T05:10:37;57.75;;;24.17;;
49530;SDS011;74875;30.696;104.060;2024-03-06T05:13:05;56.10;;;25.65;;
49530;SDS011;74875;30.696;104.060;2024-03-06T05:15:32;60.25;;;26.45;;
49530;SDS011;74875;30.696;104.060;2024-03-06T05:17:59;52.30;;;22.27;;
49530;SDS011;74875;30.696;104.060;2024-03-06T05:20:26;56.58;;;23.33;;
49530;SDS011;74875;30.696;104.060;2024-03-06T05:22:53;48.05;;;23.13;;
49530;SDS011;74875;30.696;104.060;2024-03-06T05:25:20;49.42;;;22.30;;
49530;SDS011;74875;30.696;104.060;2024-03-06T05:27:48;45.80;;;21.13;;
49530;SDS011;74875;30.696;104.060;2024-03-06T05:30:14;51.47;;;22.40;;
49530;SDS011;74875;30.696;104.060;2024-03-06T05:32:41;37.80;;;20.60;;
49530;SDS011;74875;30.696;104.060;2024-03-06T05:35:08;64.05;;;21.02;;
49530;SDS011;74875;30.696;104.060;2024-03-06T05:37:35;46.28;;;21.60;;
49530;SDS011;74875;30.696;104.060;2024-03-06T05:40:03;54.28;;;20.95;;
49530;SDS011;74875;30.696;104.060;2024-03-06T05:42:30;50.28;;;20.58;;
49530;SDS011;74875;30.696;104.060;2024-03-06T05:44:57;51.50;;;21.15;;
49530;SDS011;74875;30.696;104.060;2024-03-06T05:47:33;39.78;;;20.23;;
49530;SDS011;74875;30.696;104.060;2024-03-06T05:50:00;46.33;;;19.95;;
49530;SDS011;74875;30.696;104.060;2024-03-06T05:52:30;39.17;;;19.08;;
49530;SDS011;74875;30.696;104.060;2024-03-06T05:55:01;43.53;;;21.58;;
49530;SDS011;74875;30.696;104.060;2024-03-06T05:57:31;47.47;;;21.52;;
49530;SDS011;74875;30.696;104.060;2024-03-06T05:59:58;44.42;;;19.63;;
49530;SDS011;74875;30.696;104.060;2024-03-06T06:02:25;46.03;;;18.77;;
49530;SDS011;74875;30.696;104.060;2024-03-06T06:04:53;44.20;;;18.85;;
49530;SDS011;74875;30.696;104.060;2024-03-06T06:07:21;39.95;;;17.70;;
49530;SDS011;74875;30.696;104.060;2024-03-06T06:09:50;41.50;;;17.40;;
49530;SDS011;74875;30.696;104.060;2024-03-06T06:12:17;42.42;;;17.70;;
49530;SDS011;74875;30.696;104.060;2024-03-06T06:14:44;38.60;;;18.77;;
49530;SDS011;74875;30.696;104.060;2024-03-06T06:17:11;40.50;;;17.27;;
49530;SDS011;74875;30.696;104.060;2024-03-06T06:19:42;41.38;;;18.00;;
49530;SDS011;74875;30.696;104.060;2024-03-06T06:22:09;32.47;;;17.05;;
49530;SDS011;74875;30.696;104.060;2024-03-06T06:24:38;36.05;;;15.40;;
49530;SDS011;74875;30.696;104.060;2024-03-06T06:27:06;31.73;;;16.40;;
49530;SDS011;74875;30.696;104.060;2024-03-06T06:29:33;34.38;;;15.95;;
49530;SDS011;74875;30.696;104.060;2024-03-06T06:32:00;31.17;;;15.25;;
49530;SDS011;74875;30.696;104.060;2024-03-06T06:34:29;32.88;;;15.75;;
49530;SDS011;74875;30.696;104.060;2024-03-06T06:36:57;34.65;;;17.63;;
49530;SDS011;74875;30.696;104.060;2024-03-06T06:39:24;27.35;;;14.63;;
49530;SDS011;74875;30.696;104.060;2024-03-06T06:41:51;36.70;;;15.98;;
49530;SDS011;74875;30.696;104.060;2024-03-06T06:44:17;33.28;;;15.20;;
49530;SDS011;74875;30.696;104.060;2024-03-06T06:46:44;34.72;;;15.48;;
49530;SDS011;74875;30.696;104.060;2024-03-06T06:49:11;34.42;;;15.73;;
49530;SDS011;74875;30.696;104.060;2024-03-06T06:51:38;33.30;;;15.48;;
49530;SDS011;74875;30.696;104.060;2024-03-06T06:54:04;31.70;;;13.93;;
49530;SDS011;74875;30.696;104.060;2024-03-06T06:56:31;33.53;;;16.50;;
49530;SDS011;74875;30.696;104.060;2024-03-06T06:58:58;34.40;;;15.68;;
49530;SDS011;74875;30.696;104.060;2024-03-06T07:01:25;32.63;;;15.40;;
49530;SDS011;74875;30.696;104.060;2024-03-06T07:03:53;31.00;;;15.55;;
49530;SDS011;74875;30.696;104.060;2024-03-06T07:06:19;36.20;;;15.38;;
49530;SDS011;74875;30.696;104.060;2024-03-06T07:08:47;33.65;;;14.00;;
49530;SDS011;74875;30.696;104.060;2024-03-06T07:11:13;29.52;;;16.23;;
49530;SDS011;74875;30.696;104.060;2024-03-06T07:13:42;27.40;;;13.18;;
49530;SDS011;74875;30.696;104.060;2024-03-06T07:16:09;27.13;;;13.18;;
49530;SDS011;74875;30.696;104.060;2024-03-06T07:18:35;28.08;;;13.75;;
49530;SDS011;74875;30.696;104.060;2024-03-06T07:21:02;28.60;;;12.65;;
49530;SDS011;74875;30.696;104.060;2024-03-06T07:23:29;31.50;;;13.82;;
49530;SDS011;74875;30.696;104.060;2024-03-06T07:25:56;24.35;;;12.68;;
49530;SDS011;74875;30.696;104.060;2024-03-06T07:28:24;27.65;;;13.55;;
49530;SDS011;74875;30.696;104.060;2024-03-06T07:30:52;24.25;;;13.40;;
49530;SDS011;74875;30.696;104.060;2024-03-06T07:33:19;21.75;;;11.63;;
49530;SDS011;74875;30.696;104.060;2024-03-06T07:35:45;29.23;;;12.35;;
49530;SDS011;74875;30.696;104.060;2024-03-06T07:38:12;25.50;;;11.88;;
49530;SDS011;74875;30.696;104.060;2024-03-06T07:40:39;31.45;;;12.90;;
49530;SDS011;74875;30.696;104.060;2024-03-06T07:43:06;19.15;;;10.77;;
49530;SDS011;74875;30.696;104.060;2024-03-06T07:45:33;26.65;;;11.35;;
49530;SDS011;74875;30.696;104.060;2024-03-06T07:47:59;31.25;;;13.15;;
49530;SDS011;74875;30.696;104.060;2024-03-06T07:50:27;22.60;;;11.60;;
49530;SDS011;74875;30.696;104.060;2024-03-06T07:52:54;23.90;;;12.68;;
49530;SDS011;74875;30.696;104.060;2024-03-06T07:55:21;28.70;;;12.13;;
49530;SDS011;74875;30.696;104.060;2024-03-06T07:57:48;24.67;;;11.98;;
49530;SDS011;74875;30.696;104.060;2024-03-06T08:00:14;23.00;;;11.75;;
49530;SDS011;74875;30.696;104.060;2024-03-06T08:02:47;28.95;;;13.68;;
49530;SDS011;74875;30.696;104.060;2024-03-06T08:05:17;29.70;;;12.20;;
49530;SDS011;74875;30.696;104.060;2024-03-06T08:07:44;21.45;;;11.68;;
49530;SDS011;74875;30.696;104.060;2024-03-06T08:10:12;30.15;;;12.18;;
49530;SDS011;74875;30.696;104.060;2024-03-06T08:12:41;26.67;;;12.15;;
49530;SDS011;74875;30.696;104.060;2024-03-06T08:15:10;24.17;;;12.43;;
49530;SDS011;74875;30.696;104.060;2024-03-06T08:17:38;29.13;;;14.77;;
49530;SDS011;74875;30.696;104.060;2024-03-06T08:20:08;30.35;;;14.98;;
49530;SDS011;74875;30.696;104.060;2024-03-06T08:22:40;27.60;;;12.60;;
49530;SDS011;74875;30.696;104.060;2024-03-06T08:25:08;29.58;;;13.77;;
49530;SDS011;74875;30.696;104.060;2024-03-06T08:27:40;30.85;;;14.95;;
49530;SDS011;74875;30.696;104.060;2024-03-06T08:30:07;34.13;;;14.23;;
49530;SDS011;74875;30.696;104.060;2024-03-06T08:32:35;30.77;;;15.13;;
49530;SDS011;74875;30.696;104.060;2024-03-06T08:35:03;29.23;;;12.68;;
49530;SDS011;74875;30.696;104.060;2024-03-06T08:37:36;29.35;;;14.77;;
49530;SDS011;74875;30.696;104.060;2024-03-06T08:40:04;26.33;;;13.00;;
49530;SDS011;74875;30.696;104.060;2024-03-06T08:42:51;27.30;;;13.93;;
49530;SDS011;74875;30.696;104.060;2024-03-06T08:45:18;27.48;;;12.73;;
49530;SDS011;74875;30.696;104.060;2024-03-06T08:47:45;36.47;;;14.55;;
49530;SDS011;74875;30.696;104.060;2024-03-06T08:50:15;29.75;;;15.50;;
49530;SDS011;74875;30.696;104.060;2024-03-06T08:52:42;32.15;;;13.52;;
49530;SDS011;74875;30.696;104.060;2024-03-06T08:55:09;24.75;;;12.88;;
49530;SDS011;74875;30.696;104.060;2024-03-06T08:57:36;28.42;;;13.68;;
49530;SDS011;74875;30.696;104.060;2024-03-06T09:00:04;29.25;;;13.82;;
49530;SDS011;74875;30.696;104.060;2024-03-06T09:02:36;35.25;;;15.70;;
49530;SDS011;74875;30.696;104.060;2024-03-06T09:05:09;27.50;;;13.55;;
49530;SDS011;74875;30.696;104.060;2024-03-06T09:07:41;23.95;;;13.65;;
49530;SDS011;74875;30.696;104.060;2024-03-06T09:10:08;26.48;;;12.95;;
49530;SDS011;74875;30.696;104.060;2024-03-06T09:12:38;23.20;;;12.75;;
49530;SDS011;74875;30.696;104.060;2024-03-06T09:15:06;35.05;;;12.73;;
49530;SDS011;74875;30.696;104.060;2024-03-06T09:17:39;30.17;;;13.02;;
49530;SDS011;74875;30.696;104.060;2024-03-06T09:20:06;31.73;;;13.95;;
49530;SDS011;74875;30.696;104.060;2024-03-06T09:22:36;25.98;;;12.40;;
49530;SDS011;74875;30.696;104.060;2024-03-06T09:25:04;24.80;;;11.98;;
49530;SDS011;74875;30.696;104.060;2024-03-06T09:27:32;26.63;;;11.80;;
49530;SDS011;74875;30.696;104.060;2024-03-06T09:29:58;28.90;;;13.50;;
49530;SDS011;74875;30.696;104.060;2024-03-06T09:32:25;32.15;;;14.18;;
49530;SDS011;74875;30.696;104.060;2024-03-06T09:34:52;23.42;;;12.55;;
49530;SDS011;74875;30.696;104.060;2024-03-06T09:37:21;21.20;;;11.70;;
49530;SDS011;74875;30.696;104.060;2024-03-06T09:39:51;21.63;;;10.80;;
49530;SDS011;74875;30.696;104.060;2024-03-06T09:42:18;20.13;;;10.38;;
49530;SDS011;74875;30.696;104.060;2024-03-06T09:44:45;21.90;;;12.95;;
49530;SDS011;74875;30.696;104.060;2024-03-06T09:47:13;23.13;;;12.40;;
49530;SDS011;74875;30.696;104.060;2024-03-06T09:49:40;26.05;;;12.48;;
49530;SDS011;74875;30.696;104.060;2024-03-06T09:52:08;26.98;;;13.13;;
49530;SDS011;74875;30.696;104.060;2024-03-06T09:54:36;34.20;;;14.02;;
49530;SDS011;74875;30.696;104.060;2024-03-06T09:57:07;29.88;;;13.93;;
49530;SDS011;74875;30.696;104.060;2024-03-06T09:59:33;29.98;;;16.08;;
49530;SDS011;74875;30.696;104.060;2024-03-06T10:02:00;38.45;;;15.30;;
49530;SDS011;74875;30.696;104.060;2024-03-06T10:04:28;48.33;;;16.80;;
49530;SDS011;74875;30.696;104.060;2024-03-06T10:06:56;36.30;;;16.60;;
49530;SDS011;74875;30.696;104.060;2024-03-06T10:09:24;37.08;;;15.95;;
49530;SDS011;74875;30.696;104.060;2024-03-06T10:11:52;48.15;;;16.45;;
49530;SDS011;74875;30.696;104.060;2024-03-06T10:14:21;45.50;;;16.63;;
49530;SDS011;74875;30.696;104.060;2024-03-06T10:16:52;32.00;;;14.75;;
49530;SDS011;74875;30.696;104.060;2024-03-06T10:19:23;42.42;;;16.35;;
49530;SDS011;74875;30.696;104.060;2024-03-06T10:21:53;39.67;;;15.88;;
49530;SDS011;74875;30.696;104.060;2024-03-06T10:24:20;32.70;;;15.32;;
49530;SDS011;74875;30.696;104.060;2024-03-06T10:26:49;28.27;;;14.10;;
49530;SDS011;74875;30.696;104.060;2024-03-06T10:29:19;29.35;;;14.90;;
49530;SDS011;74875;30.696;104.060;2024-03-06T10:31:47;33.63;;;14.73;;
49530;SDS011;74875;30.696;104.060;2024-03-06T10:34:15;29.88;;;12.48;;
49530;SDS011;74875;30.696;104.060;2024-03-06T10:36:43;34.30;;;14.15;;
49530;SDS011;74875;30.696;104.060;2024-03-06T10:39:10;28.98;;;12.68;;
49530;SDS011;74875;30.696;104.060;2024-03-06T10:41:41;32.58;;;13.88;;
49530;SDS011;74875;30.696;104.060;2024-03-06T10:44:10;28.65;;;14.63;;
49530;SDS011;74875;30.696;104.060;2024-03-06T10:46:44;30.50;;;14.23;;
49530;SDS011;74875;30.696;104.060;2024-03-06T10:49:12;28.15;;;13.35;;
49530;SDS011;74875;30.696;104.060;2024-03-06T10:51:40;31.40;;;13.25;;
49530;SDS011;74875;30.696;104.060;2024-03-06T10:54:09;34.88;;;13.82;;
49530;SDS011;74875;30.696;104.060;2024-03-06T10:56:39;33.20;;;13.68;;
49530;SDS011;74875;30.696;104.060;2024-03-06T10:59:10;34.08;;;12.25;;
49530;SDS011;74875;30.696;104.060;2024-03-06T11:01:39;38.42;;;13.85;;
49530;SDS011;74875;30.696;104.060;2024-03-06T11:04:09;35.03;;;13.95;;
49530;SDS011;74875;30.696;104.060;2024-03-06T11:06:39;57.72;;;20.23;;
49530;SDS011;74875;30.696;104.060;2024-03-06T11:09:06;51.80;;;21.08;;
49530;SDS011;74875;30.696;104.060;2024-03-06T11:11:47;63.28;;;22.08;;
49530;SDS011;74875;30.696;104.060;2024-03-06T11:14:17;54.05;;;18.45;;
49530;SDS011;74875;30.696;104.060;2024-03-06T11:33:38;50.08;;;19.77;;
49530;SDS011;74875;30.696;104.060;2024-03-06T11:36:18;36.95;;;17.48;;
49530;SDS011;74875;30.696;104.060;2024-03-06T11:38:51;43.42;;;19.00;;
49530;SDS011;74875;30.696;104.060;2024-03-06T11:41:19;50.45;;;19.15;;
49530;SDS011;74875;30.696;104.060;2024-03-06T11:43:48;47.28;;;20.13;;
49530;SDS011;74875;30.696;104.060;2024-03-06T11:46:40;54.65;;;20.13;;
49530;SDS011;74875;30.696;104.060;2024-03-06T11:51:47;46.33;;;18.47;;
49530;SDS011;74875;30.696;104.060;2024-03-06T11:54:16;49.30;;;18.48;;
49530;SDS011;74875;30.696;104.060;2024-03-06T11:56:49;55.45;;;18.95;;
49530;SDS011;74875;30.696;104.060;2024-03-06T11:59:29;47.92;;;18.75;;
49530;SDS011;74875;30.696;104.060;2024-03-06T12:02:01;49.55;;;18.20;;
49530;SDS011;74875;30.696;104.060;2024-03-06T12:04:32;41.95;;;18.23;;
49530;SDS011;74875;30.696;104.060;2024-03-06T12:07:21;41.00;;;18.02;;
49530;SDS011;74875;30.696;104.060;2024-03-06T12:09:48;40.83;;;17.73;;
49530;SDS011;74875;30.696;104.060;2024-03-06T12:12:15;59.72;;;17.60;;
49530;SDS011;74875;30.696;104.060;2024-03-06T12:14:41;44.75;;;18.50;;
49530;SDS011;74875;30.696;104.060;2024-03-06T12:17:11;40.47;;;17.42;;
49530;SDS011;74875;30.696;104.060;2024-03-06T12:19:40;41.88;;;18.88;;
49530;SDS011;74875;30.696;104.060;2024-03-06T12:22:10;40.88;;;18.38;;
49530;SDS011;74875;30.696;104.060;2024-03-06T12:24:37;38.28;;;17.23;;
49530;SDS011;74875;30.696;104.060;2024-03-06T12:27:05;43.67;;;16.00;;
49530;SDS011;74875;30.696;104.060;2024-03-06T12:29:33;37.85;;;16.25;;
49530;SDS011;74875;30.696;104.060;2024-03-06T12:32:01;43.65;;;17.52;;
49530;SDS011;74875;30.696;104.060;2024-03-06T12:34:29;40.03;;;16.92;;
49530;SDS011;74875;30.696;104.060;2024-03-06T12:36:56;42.55;;;17.23;;
49530;SDS011;74875;30.696;104.060;2024-03-06T12:39:34;37.88;;;15.57;;
49530;SDS011;74875;30.696;104.060;2024-03-06T12:42:01;37.25;;;15.55;;
49530;SDS011;74875;30.696;104.060;2024-03-06T12:44:28;43.13;;;15.75;;
49530;SDS011;74875;30.696;104.060;2024-03-06T12:46:55;29.13;;;13.90;;
49530;SDS011;74875;30.696;104.060;2024-03-06T12:49:22;32.90;;;14.18;;
49530;SDS011;74875;30.696;104.060;2024-03-06T12:51:50;40.10;;;15.18;;
49530;SDS011;74875;30.696;104.060;2024-03-06T12:54:19;32.80;;;15.88;;
49530;SDS011;74875;30.696;104.060;2024-03-06T12:56:45;36.75;;;14.70;;
49530;SDS011;74875;30.696;104.060;2024-03-06T12:59:12;37.53;;;14.80;;
49530;SDS011;74875;30.696;104.060;2024-03-06T13:01:39;29.00;;;14.43;;
49530;SDS011;74875;30.696;104.060;2024-03-06T13:04:06;38.78;;;15.85;;
49530;SDS011;74875;30.696;104.060;2024-03-06T13:06:33;32.97;;;12.55;;
49530;SDS011;74875;30.696;104.060;2024-03-06T13:09:00;31.23;;;14.43;;
49530;SDS011;74875;30.696;104.060;2024-03-06T13:11:27;32.58;;;13.82;;
49530;SDS011;74875;30.696;104.060;2024-03-06T13:13:54;36.42;;;13.20;;
49530;SDS011;74875;30.696;104.060;2024-03-06T13:16:20;37.58;;;15.27;;
49530;SDS011;74875;30.696;104.060;2024-03-06T13:18:47;28.65;;;13.38;;
49530;SDS011;74875;30.696;104.060;2024-03-06T13:21:15;26.40;;;14.15;;
49530;SDS011;74875;30.696;104.060;2024-03-06T13:23:42;35.58;;;13.05;;
49530;SDS011;74875;30.696;104.060;2024-03-06T13:26:09;34.33;;;14.10;;
49530;SDS011;74875;30.696;104.060;2024-03-06T13:28:35;33.13;;;14.55;;
49530;SDS011;74875;30.696;104.060;2024-03-06T13:31:06;34.58;;;13.25;;
49530;SDS011;74875;30.696;104.060;2024-03-06T13:33:33;28.05;;;13.23;;
49530;SDS011;74875;30.696;104.060;2024-03-06T13:36:01;29.73;;;14.25;;
49530;SDS011;74875;30.696;104.060;2024-03-06T13:38:31;34.67;;;14.55;;
49530;SDS011;74875;30.696;104.060;2024-03-06T13:40:58;28.80;;;12.82;;
49530;SDS011;74875;30.696;104.060;2024-03-06T13:43:28;25.50;;;12.45;;
49530;SDS011;74875;30.696;104.060;2024-03-06T13:45:54;28.33;;;11.98;;
49530;SDS011;74875;30.696;104.060;2024-03-06T13:48:21;28.52;;;13.07;;
49530;SDS011;74875;30.696;104.060;2024-03-06T13:50:48;29.42;;;11.93;;
49530;SDS011;74875;30.696;104.060;2024-03-06T13:53:15;21.70;;;12.35;;
49530;SDS011;74875;30.696;104.060;2024-03-06T13:55:42;20.05;;;11.07;;
49530;SDS011;74875;30.696;104.060;2024-03-06T13:58:09;28.35;;;12.55;;
49530;SDS011;74875;30.696;104.060;2024-03-06T14:00:36;23.60;;;12.80;;
49530;SDS011;74875;30.696;104.060;2024-03-06T14:03:03;28.77;;;11.70;;
49530;SDS011;74875;30.696;104.060;2024-03-06T14:05:30;27.83;;;12.98;;
49530;SDS011;74875;30.696;104.060;2024-03-06T14:07:58;21.52;;;11.50;;
49530;SDS011;74875;30.696;104.060;2024-03-06T14:10:25;23.25;;;11.82;;
49530;SDS011;74875;30.696;104.060;2024-03-06T14:12:52;29.73;;;12.60;;
49530;SDS011;74875;30.696;104.060;2024-03-06T14:15:20;21.00;;;11.93;;
49530;SDS011;74875;30.696;104.060;2024-03-06T14:17:48;26.52;;;12.93;;
49530;SDS011;74875;30.696;104.060;2024-03-06T14:20:15;28.75;;;11.27;;
49530;SDS011;74875;30.696;104.060;2024-03-06T14:22:42;28.98;;;12.38;;
49530;SDS011;74875;30.696;104.060;2024-03-06T14:25:09;26.30;;;12.23;;